Nearby METAR Reports

 

EGVO - Odiham Raf, United Kingdom
Distance from station: ESE 6mi, 10km
Updated: Sat, 15-Dec-2018 15:50 GMT
Light rain, Mostly cloudy
Light rain, Mostly cloudy
 Wind from SSE
Wind: SSE 25 mph , 41 km/h, Gust: 38 mph , 61 km/h
Temperature: 41°F , 5°C
Wind Chill: 31°F , -1°C
Dew Point: 39°F , 4°C
Humidity: 93%
Barometer: 29.62 inHg , 1003 hPa
Summary: Light Rain
Clouds: Mostly Cloudy
Visibility: 6 miles , 10 km
Cloud details: Mostly Cloudy 700 ft
Mostly Cloudy 5000 ft
2018/12/15 15:50 EGVO 151550Z AUTO 15022G33KT 9999 -RA BKN007/// BKN050/// 05/04 Q1003
EGLF - Farnborough, United Kingdom
Distance from station: E 14mi, 22km
Updated: Sat, 15-Dec-2018 16:20 GMT
Rain, Mostly cloudy
Rain, Mostly cloudy
 Wind from SE
Wind: SE 21 mph , 33 km/h
Temperature: 39°F , 4°C
Wind Chill: 29°F , -2°C
Dew Point: 39°F , 4°C
Humidity: 100%
Barometer: 29.62 inHg , 1003 hPa
Summary: Rain
Clouds: Mostly Cloudy
Visibility: 3 miles , 5 km
Cloud details: Few Clouds 100 ft
Mostly Cloudy 700 ft
2018/12/15 16:20 EGLF 151620Z 14018KT 5000 RA FEW001 BKN007 04/04 Q1003
 
EGVP - Middle Wallop, United Kingdom
Distance from station: WSW 23mi, 36km
Updated: Sat, 15-Dec-2018 15:50 GMT
Overcast
Overcast
 Wind from SE
Wind: SE 22 mph , 35 km/h
Temperature: 41°F , 5°C
Wind Chill: 31°F , -1°C
Dew Point: 41°F , 5°C
Humidity: 100%
Barometer: 29.59 inHg , 1002 hPa
Clouds: Overcast
Visibility: 3 miles , 5 km
Cloud details: Overcast 400 ft
2018/12/15 15:50 EGVP 151550Z AUTO 14019KT 5000 // OVC004/// 05/05 Q1002
EGHI - Southampton Wx C, United Kingdom
Distance from station: SSW 24mi, 39km
Updated: Sat, 15-Dec-2018 16:20 GMT
Rain, Overcast
Rain, Overcast
 Wind from SE
Wind: SE 17 mph , 28 km/h, Gust: 29 mph , 46 km/h
Temperature: 43°F , 6°C
Wind Chill: 35°F , 2°C
Dew Point: 41°F , 5°C
Humidity: 93%
Barometer: 29.59 inHg , 1002 hPa
Summary: Rain
Clouds: Overcast
Visibility: 2 miles , 4 km
Cloud details: Mostly Cloudy 700 ft
Overcast 1800 ft
2018/12/15 16:20 EGHI 151620Z 13015G25KT 100V160 4000 RA BKN007 OVC018 06/05 Q1002
 
EGUB - Benson Raf, United Kingdom
Distance from station: N 24mi, 39km
Updated: Sat, 15-Dec-2018 15:50 GMT
Mostly Cloudy
Mostly Cloudy
 Wind from SE
Wind: SE 23 mph , 37 km/h
Temperature: 37°F , 3°C
Wind Chill: 26°F , -3°C
Dew Point: 37°F , 3°C
Humidity: 100%
Barometer: 29.59 inHg , 1002 hPa
Clouds: Mostly Cloudy
Visibility: 2 miles , 4 km
Cloud details: Few Clouds 700 ft
Mostly Cloudy 5000 ft
2018/12/15 15:50 EGUB 151550Z AUTO 13020KT 4000 // FEW007/// BKN050/// 03/03 Q1002
EGDM - Boscombe Down, United Kingdom
Distance from station: WSW 29mi, 47km
Updated: Sat, 15-Dec-2018 15:50 GMT
Rain, Overcast
Rain, Overcast
 Wind from SE
Wind: SE 24 mph , 39 km/h
Temperature: 41°F , 5°C
Wind Chill: 31°F , -1°C
Dew Point: 41°F , 5°C
Humidity: 100%
Barometer: 29.59 inHg , 1002 hPa
Summary: Rain
Clouds: Overcast
Visibility: 6 miles , 10 km
Cloud details: Overcast 400 ft
2018/12/15 15:50 EGDM 151550Z AUTO 13021KT 9999 RA OVC004/// 05/05 Q1002
 
EGLL - London/Heathrow, United Kingdom
Distance from station: ENE 31mi, 51km
Updated: Sat, 15-Dec-2018 16:20 GMT
Rain, Thunderstorm
Rain, Thunderstorm
 Wind from SE
Wind: SE 15 mph , 24 km/h
Temperature: 39°F , 4°C
Wind Chill: 31°F , -1°C
Dew Point: 37°F , 3°C
Humidity: 93%
Barometer: 29.68 inHg , 1005 hPa
Summary: Rain
Clouds: Thunderstorm
Visibility: 2 miles , 4 km
Cloud details: Mostly Cloudy 900 ft
Overcast 1400 ft
2018/12/15 16:20 EGLL 151620Z AUTO 13013KT 3500 RA BKN009/// OVC014/// //////TCU 04/03 Q1005
EGWU - Northolt Raf, United Kingdom
Distance from station: NE 35mi, 56km
Updated: Sat, 15-Dec-2018 15:50 GMT
Rain, Overcast
Rain, Overcast
 Wind from SE
Wind: SE 16 mph , 26 km/h
Temperature: 37°F , 3°C
Wind Chill: 28°F , -2°C
Dew Point: 36°F , 2°C
Humidity: 93%
Barometer: 29.71 inHg , 1006 hPa
Summary: Rain
Clouds: Overcast
Visibility: 3 miles , 5 km
Cloud details: Mostly Cloudy 700 ft
Overcast 1100 ft
2018/12/15 15:50 EGWU 151550Z 14014KT 5000 RA BKN007 OVC011 03/02 Q1006 GRN TEMPO 4000 SCT006 YLO1
 
EGVA - Fairford Raf, United Kingdom
Distance from station: NW 40mi, 65km
Updated: Sat, 15-Dec-2018 16:35 GMT
Light rain, Overcast
Light rain, Overcast
 Wind from SSE
Wind: SSE 15 mph , 24 km/h, Gust: 28 mph , 44 km/h
Summary: Light Rain
Clouds: Overcast
Visibility: 5 miles , 8 km
Cloud details: Overcast 1100 ft
2018/12/15 16:35 EGVA 151635Z AUTO 15013G24KT 8000 -RA OVC011 M A2952 RMK AO2 RAE15RAB35 SLPNO ALSTG ESTMD $
EGKK - London/Gatwick A, United Kingdom
Distance from station: ESE 41mi, 66km
Updated: Sat, 15-Dec-2018 16:20 GMT
Rain, Mostly cloudy
Rain, Mostly cloudy
 Wind from SE
Wind: SE 15 mph , 24 km/h
Temperature: 39°F , 4°C
Wind Chill: 31°F , -1°C
Dew Point: 37°F , 3°C
Humidity: 93%
Barometer: 29.71 inHg , 1006 hPa
Summary: Rain
Clouds: Mostly Cloudy
Visibility: 4 miles , 7 km
Cloud details: Mostly Cloudy 600 ft
2018/12/15 16:20 EGKK 151620Z 13013KT 7000 RA BKN006 04/03 Q1006
 
EGVN - Brize Norton Raf, United Kingdom
Distance from station: NNW 41mi, 66km
Updated: Sat, 15-Dec-2018 15:50 GMT
Rain, Overcast
Rain, Overcast
 Wind from SE
Wind: SE 15 mph , 24 km/h
Temperature: 39°F , 4°C
Wind Chill: 31°F , -1°C
Dew Point: 37°F , 3°C
Humidity: 93%
Barometer: 29.59 inHg , 1002 hPa
Summary: Rain
Clouds: Overcast
Visibility: 3 miles , 5 km
Cloud details: Mostly Cloudy 600 ft
Overcast 1200 ft
2018/12/15 15:50 EGVN 151550Z 13013KT 5000 RA BKN006 OVC012 04/03 Q1002 YLO1 TEMPO 4000 YLO1
EGKA - Shoreham-By-Sea, United Kingdom
Distance from station: SE 45mi, 73km
Updated: Sat, 15-Dec-2018 16:20 GMT
Heavy rain, Mostly cloudy
Heavy rain, Mostly cloudy
 Wind from SE
Wind: SE 23 mph , 37 km/h, Gust: 35 mph , 56 km/h
Temperature: 43°F , 6°C
Wind Chill: 34°F , 1°C
Dew Point: 41°F , 5°C
Humidity: 93%
Barometer: 29.71 inHg , 1006 hPa
Summary: Heavy Rain
Clouds: Mostly Cloudy
Visibility: 2 miles , 3 km
Cloud details: Partly Cloudy 500 ft
Mostly Cloudy 1200 ft
2018/12/15 16:20 EGKA 151620Z 14020G30KT 3000 +RA SCT005 BKN012 06/05 Q1006
 
EGHH - Bournemouth Airp, United Kingdom
Distance from station: SW 46mi, 75km
Updated: Sat, 15-Dec-2018 16:20 GMT
Rain, Mist, Mostly cloudy
Rain, Mist, Mostly cloudy
 Wind from SSE
Wind: SSE 18 mph , 30 km/h
Temperature: 48°F , 9°C
Wind Chill: 41°F , 5°C
Dew Point: 48°F , 9°C
Humidity: 100%
Barometer: 29.56 inHg , 1001 hPa
Summary: Rain, Mist
Clouds: Mostly Cloudy
Visibility: 2 miles , 3 km
Cloud details: Mostly Cloudy 300 ft
2018/12/15 16:20 EGHH 151620Z 16016KT 120V190 2500 RA BR BKN003 09/09 Q1001 RERA
EGKB - Biggin Hill, United Kingdom
Distance from station: E 48mi, 77km
Updated: Sat, 15-Dec-2018 16:20 GMT
Rain, Mist, Mostly cloudy
Rain, Mist, Mostly cloudy
 Wind from SE
Wind: SE 26 mph , 43 km/h, Gust: 40 mph , 65 km/h
Temperature: 36°F , 2°C
Wind Chill: 24°F , -4°C
Dew Point: 34°F , 1°C
Humidity: 93%
Barometer: 29.65 inHg , 1004 hPa
Summary: Rain, Mist
Clouds: Mostly Cloudy
Visibility: 2 miles , 3 km
Cloud details: Mostly Cloudy 500 ft
2018/12/15 16:20 EGKB 151620Z 14023G35KT 3000 RA BR BKN005 02/01 Q1004

Metar display script from Saratoga-Weather.org